createdAt,value
2019-04-30T00:00:58.648Z,6.61
2019-04-30T00:03:31.469Z,6.71
2019-04-30T00:06:00.088Z,6.66
2019-04-30T00:08:30.219Z,6.67
2019-04-30T00:10:58.691Z,6.62
2019-04-30T00:13:27.217Z,6.62
2019-04-30T00:15:58.778Z,6.58
2019-04-30T00:18:26.147Z,6.61
2019-04-30T00:20:55.330Z,6.65
2019-04-30T00:23:27.171Z,6.60
2019-04-30T00:25:59.764Z,6.59
2019-04-30T00:28:25.534Z,6.52
2019-04-30T00:30:56.189Z,6.48
2019-04-30T00:33:25.661Z,6.45
2019-04-30T00:35:57.855Z,6.40
2019-04-30T00:38:25.348Z,6.34
2019-04-30T00:40:55.774Z,6.35
2019-04-30T00:43:25.217Z,6.32
2019-04-30T00:45:55.169Z,6.32
2019-04-30T00:48:28.093Z,6.28
2019-04-30T00:50:55.830Z,6.23
2019-04-30T00:53:26.100Z,6.22
2019-04-30T00:55:57.055Z,6.14
2019-04-30T00:58:30.082Z,6.11
2019-04-30T01:00:59.687Z,5.94
2019-04-30T01:03:28.229Z,5.97
2019-04-30T01:05:56.677Z,5.96
2019-04-30T01:08:28.555Z,5.94
2019-04-30T01:10:55.653Z,5.92
2019-04-30T01:13:24.383Z,5.88
2019-04-30T01:15:52.888Z,5.81
2019-04-30T01:18:23.625Z,5.73
2019-04-30T01:20:51.725Z,5.53
2019-04-30T01:23:20.996Z,5.52
2019-04-30T01:25:51.309Z,5.49
2019-04-30T01:28:23.110Z,5.48
2019-04-30T01:30:53.948Z,5.45
2019-04-30T01:33:20.406Z,5.46
2019-04-30T01:35:48.894Z,5.35
2019-04-30T01:38:18.922Z,5.30
2019-04-30T01:40:51.027Z,5.28
2019-04-30T01:43:23.524Z,5.16
2019-04-30T01:45:48.670Z,5.20
2019-04-30T01:48:19.290Z,5.20
2019-04-30T01:50:48.850Z,5.06
2019-04-30T01:53:18.611Z,5.04
2019-04-30T01:55:54.769Z,4.97
2019-04-30T01:58:33.292Z,4.87
2019-04-30T02:01:05.701Z,4.98
2019-04-30T02:03:34.218Z,4.98
2019-04-30T02:06:02.786Z,4.93
2019-04-30T02:08:31.822Z,4.92
2019-04-30T02:11:00.315Z,4.83
2019-04-30T02:13:29.534Z,4.73
2019-04-30T02:15:59.374Z,4.78
2019-04-30T02:18:29.557Z,4.72
2019-04-30T02:20:59.495Z,4.73
2019-04-30T02:23:29.781Z,4.69
2019-04-30T02:25:59.015Z,4.69
2019-04-30T02:28:29.009Z,4.64
2019-04-30T02:30:59.951Z,4.62
2019-04-30T02:33:30.727Z,4.53
2019-04-30T02:36:16.408Z,4.50
2019-04-30T02:38:49.494Z,4.56
2019-04-30T02:41:19.873Z,4.49
2019-04-30T02:43:50.633Z,4.40
2019-04-30T02:46:20.021Z,4.36
2019-04-30T02:48:50.870Z,4.41
2019-04-30T02:51:22.892Z,4.40
2019-04-30T02:54:00.569Z,4.35
2019-04-30T02:56:30.015Z,4.30
2019-04-30T02:59:03.211Z,4.27
2019-04-30T03:01:30.467Z,4.27
2019-04-30T03:03:59.806Z,4.28
2019-04-30T03:06:30.427Z,4.26
2019-04-30T03:09:01.048Z,4.23
2019-04-30T03:11:30.306Z,4.28
2019-04-30T03:13:59.370Z,4.22
2019-04-30T03:16:40.141Z,4.20
2019-04-30T03:19:22.170Z,4.17
2019-04-30T03:21:52.263Z,4.20
2019-04-30T03:24:20.676Z,4.14
2019-04-30T03:26:49.935Z,4.09
2019-04-30T03:29:20.452Z,4.13
2019-04-30T03:31:52.420Z,4.09
2019-04-30T03:34:25.212Z,4.13
2019-04-30T03:36:50.477Z,4.16
2019-04-30T03:39:19.935Z,4.14
2019-04-30T03:41:50.122Z,4.05
2019-04-30T03:44:25.444Z,4.09
2019-04-30T03:46:49.813Z,4.06
2019-04-30T03:49:20.295Z,4.03
2019-04-30T03:51:50.027Z,3.90
2019-04-30T03:54:19.618Z,3.99
2019-04-30T03:56:50.204Z,3.82
2019-04-30T03:59:19.927Z,3.81
2019-04-30T04:01:50.271Z,3.90
2019-04-30T04:04:30.978Z,3.89
2019-04-30T04:07:13.392Z,3.93
2019-04-30T04:09:43.471Z,3.81
2019-04-30T04:12:30.455Z,3.84
2019-04-30T04:15:03.346Z,3.82
2019-04-30T04:17:31.104Z,3.78
2019-04-30T04:19:59.755Z,3.83
2019-04-30T04:22:30.698Z,3.84
2019-04-30T04:25:00.082Z,3.87
2019-04-30T04:27:30.215Z,3.91
2019-04-30T04:30:01.128Z,3.95
2019-04-30T04:32:30.736Z,3.94
2019-04-30T04:35:00.200Z,3.95
2019-04-30T04:37:30.102Z,3.99
2019-04-30T04:39:59.669Z,4.06
2019-04-30T04:42:29.998Z,4.08
2019-04-30T04:44:59.567Z,4.12
2019-04-30T04:47:30.885Z,4.18
2019-04-30T04:50:00.710Z,4.20
2019-04-30T04:52:31.371Z,4.21
2019-04-30T04:55:00.325Z,4.21
2019-04-30T04:57:30.508Z,4.22
2019-04-30T05:00:05.022Z,4.34
2019-04-30T05:02:40.133Z,4.41
2019-04-30T05:05:09.662Z,4.47
2019-04-30T05:07:39.955Z,4.51
2019-04-30T05:10:10.255Z,4.59
2019-04-30T05:12:39.813Z,4.61
2019-04-30T05:15:09.515Z,4.65
2019-04-30T05:17:39.825Z,4.72
2019-04-30T05:20:10.066Z,4.74
2019-04-30T05:22:39.037Z,4.78
2019-04-30T05:25:08.936Z,4.82
2019-04-30T05:27:39.050Z,4.92
2019-04-30T05:30:09.713Z,4.94
2019-04-30T05:32:39.233Z,4.97
2019-04-30T05:35:09.566Z,5.00
2019-04-30T05:37:38.628Z,5.07
2019-04-30T05:40:09.212Z,5.11
2019-04-30T05:42:38.655Z,5.13
2019-04-30T05:45:09.312Z,5.17
2019-04-30T05:47:38.913Z,5.24
2019-04-30T05:50:09.001Z,5.35
2019-04-30T05:52:39.717Z,5.45
2019-04-30T05:55:08.775Z,5.52
2019-04-30T05:57:40.817Z,5.62
2019-04-30T06:00:10.058Z,5.67
2019-04-30T06:02:39.886Z,5.90
2019-04-30T06:05:09.609Z,6.61
2019-04-30T06:07:39.461Z,7.17
2019-04-30T06:10:12.636Z,7.82
2019-04-30T06:12:45.874Z,7.93
2019-04-30T06:15:25.104Z,8.64
2019-04-30T06:18:00.296Z,9.16
2019-04-30T06:20:24.685Z,9.56
2019-04-30T06:22:55.845Z,10.00
2019-04-30T06:25:31.777Z,10.69
2019-04-30T06:27:55.133Z,11.51
2019-04-30T06:30:25.711Z,10.91
2019-04-30T06:32:54.983Z,10.83
2019-04-30T06:35:23.950Z,11.26
2019-04-30T06:37:52.471Z,10.83
2019-04-30T06:40:21.079Z,11.13
2019-04-30T06:42:49.750Z,11.63
2019-04-30T06:45:19.138Z,11.93
2019-04-30T06:47:49.113Z,11.70
2019-04-30T06:50:19.445Z,11.77
2019-04-30T06:52:56.215Z,11.67
2019-04-30T06:55:19.365Z,10.74
2019-04-30T06:57:49.660Z,11.46
2019-04-30T07:00:20.694Z,11.54
2019-04-30T07:02:49.460Z,11.99
2019-04-30T07:05:18.719Z,12.12
2019-04-30T07:08:09.295Z,12.44
2019-04-30T07:10:35.913Z,12.18
2019-04-30T07:13:15.086Z,11.63
2019-04-30T07:15:43.615Z,11.56
2019-04-30T07:18:12.059Z,12.33
2019-04-30T07:20:40.506Z,12.20
2019-04-30T07:23:09.394Z,12.38
2019-04-30T07:25:39.119Z,12.07
2019-04-30T07:28:09.070Z,11.80
2019-04-30T07:30:39.462Z,11.97
2019-04-30T07:33:09.534Z,11.86
2019-04-30T07:35:39.850Z,11.70
2019-04-30T07:38:09.355Z,11.83
2019-04-30T07:40:39.061Z,11.79
2019-04-30T07:43:09.029Z,12.56
2019-04-30T07:45:39.307Z,12.74
2019-04-30T07:48:09.315Z,11.95
2019-04-30T07:50:41.034Z,12.22
2019-04-30T07:53:11.266Z,12.45
2019-04-30T07:55:39.254Z,12.63
2019-04-30T07:58:09.067Z,12.75
2019-04-30T08:00:40.243Z,12.51
2019-04-30T08:03:12.633Z,13.22
2019-04-30T08:05:42.998Z,13.37
2019-04-30T08:08:20.896Z,13.23
2019-04-30T08:10:41.685Z,13.90
2019-04-30T08:13:14.892Z,13.13
2019-04-30T08:15:42.294Z,13.40
2019-04-30T08:18:10.461Z,14.20
2019-04-30T08:20:39.347Z,13.69
2019-04-30T08:23:20.263Z,13.25
2019-04-30T08:25:39.083Z,13.30
2019-04-30T08:28:09.107Z,13.02
2019-04-30T08:30:39.128Z,13.17
2019-04-30T08:33:09.459Z,13.61
2019-04-30T08:35:39.737Z,13.27
2019-04-30T08:38:10.617Z,13.48
2019-04-30T08:40:47.237Z,13.59
2019-04-30T08:43:09.578Z,13.31
2019-04-30T08:45:38.603Z,13.36
2019-04-30T08:48:09.062Z,13.56
2019-04-30T08:50:39.123Z,13.31
2019-04-30T08:53:07.568Z,13.39
2019-04-30T08:55:36.007Z,13.64
2019-04-30T08:58:09.829Z,13.72
2019-04-30T09:00:35.179Z,13.41
2019-04-30T09:03:03.837Z,13.59
2019-04-30T09:05:33.991Z,13.59
2019-04-30T09:08:02.639Z,13.91
2019-04-30T09:10:31.164Z,13.58
2019-04-30T09:12:59.913Z,13.38
2019-04-30T09:15:29.135Z,13.49
2019-04-30T09:18:03.359Z,13.62
2019-04-30T09:20:29.128Z,13.35
2019-04-30T09:22:59.525Z,13.31
2019-04-30T09:25:28.664Z,13.74
2019-04-30T09:27:58.840Z,13.83
2019-04-30T09:30:27.348Z,14.05
2019-04-30T09:32:55.789Z,14.03
2019-04-30T09:35:24.253Z,13.89
2019-04-30T09:37:59.010Z,14.02
2019-04-30T09:40:22.836Z,14.13
2019-04-30T09:42:51.287Z,14.21
2019-04-30T09:45:19.797Z,14.00
2019-04-30T09:47:50.378Z,14.15
2019-04-30T09:50:18.935Z,14.37
2019-04-30T09:52:49.518Z,14.58
2019-04-30T09:55:19.255Z,14.47
2019-04-30T09:57:48.835Z,14.56
2019-04-30T10:00:19.381Z,14.51
2019-04-30T10:02:48.870Z,14.46
2019-04-30T10:05:19.736Z,14.63
2019-04-30T10:07:49.353Z,14.70
2019-04-30T10:10:20.449Z,14.52
2019-04-30T10:12:49.329Z,14.52
2019-04-30T10:15:28.935Z,14.24
2019-04-30T10:17:58.054Z,14.57
2019-04-30T10:20:43.831Z,14.61
2019-04-30T10:23:12.357Z,14.78
2019-04-30T10:25:40.953Z,14.81
2019-04-30T10:28:10.126Z,14.86
2019-04-30T10:30:39.153Z,14.55
2019-04-30T10:33:10.036Z,14.56
2019-04-30T10:35:38.612Z,14.91
2019-04-30T10:38:07.170Z,14.96
2019-04-30T10:40:35.668Z,14.99
2019-04-30T10:43:04.251Z,15.11
2019-04-30T10:45:32.758Z,14.97
2019-04-30T10:48:01.372Z,15.06
2019-04-30T10:50:29.791Z,15.03
2019-04-30T10:52:59.121Z,15.09
2019-04-30T10:55:28.715Z,15.20
2019-04-30T10:57:59.357Z,15.33
2019-04-30T11:00:42.116Z,15.43
2019-04-30T11:03:19.941Z,15.31
2019-04-30T11:05:41.646Z,15.41
2019-04-30T11:08:10.265Z,15.60
2019-04-30T11:10:39.894Z,15.68
2019-04-30T11:13:08.762Z,15.44
2019-04-30T11:15:39.305Z,15.61
2019-04-30T11:18:07.796Z,15.48
2019-04-30T11:20:36.577Z,15.43
2019-04-30T11:23:14.089Z,15.60
2019-04-30T11:25:37.117Z,15.54
2019-04-30T11:28:09.932Z,15.64
2019-04-30T11:30:39.968Z,15.69
2019-04-30T11:33:08.912Z,15.49
2019-04-30T11:35:39.364Z,15.65
2019-04-30T11:38:07.929Z,15.78
2019-04-30T11:40:39.298Z,15.80
2019-04-30T11:43:06.634Z,15.90
2019-04-30T11:45:53.271Z,15.90
2019-04-30T11:48:21.691Z,15.88
2019-04-30T11:50:50.122Z,16.00
2019-04-30T11:53:25.513Z,16.12
2019-04-30T11:55:49.275Z,16.01
2019-04-30T11:58:21.709Z,16.04
2019-04-30T12:00:49.509Z,16.13
2019-04-30T12:03:19.126Z,16.24
2019-04-30T12:05:49.133Z,16.15
2019-04-30T12:08:19.593Z,16.04
2019-04-30T12:10:52.084Z,16.07
2019-04-30T12:13:24.718Z,16.00
2019-04-30T12:15:54.005Z,16.20
2019-04-30T12:18:22.569Z,16.22
2019-04-30T12:20:51.095Z,16.28
2019-04-30T12:23:19.545Z,16.37
2019-04-30T12:25:49.304Z,16.27
2019-04-30T12:28:19.560Z,16.40
2019-04-30T12:30:48.967Z,16.56
2019-04-30T12:33:19.170Z,16.68
2019-04-30T12:35:51.037Z,16.48
2019-04-30T12:38:19.168Z,16.57
2019-04-30T12:40:48.037Z,16.60
2019-04-30T12:43:16.539Z,16.81
2019-04-30T12:45:45.019Z,16.80
2019-04-30T12:48:15.216Z,16.91
2019-04-30T12:50:49.150Z,17.11
2019-04-30T12:53:31.532Z,17.10
2019-04-30T12:56:01.596Z,17.11
2019-04-30T12:58:30.046Z,17.22
2019-04-30T13:00:59.163Z,17.43
2019-04-30T13:03:28.402Z,17.39
2019-04-30T13:06:00.651Z,17.50
2019-04-30T13:08:28.706Z,17.40
2019-04-30T13:10:58.064Z,17.38
2019-04-30T13:13:31.486Z,17.42
2019-04-30T13:15:59.864Z,17.35
2019-04-30T13:18:29.480Z,17.46
2019-04-30T13:20:58.835Z,17.37
2019-04-30T13:23:29.686Z,17.46
2019-04-30T13:25:58.506Z,17.40
2019-04-30T13:28:29.683Z,17.55
2019-04-30T13:30:59.300Z,17.58
2019-04-30T13:33:32.667Z,17.52
2019-04-30T13:36:01.119Z,17.60
2019-04-30T13:38:31.244Z,17.57
2019-04-30T13:41:04.379Z,17.70
2019-04-30T13:43:50.523Z,17.71
2019-04-30T13:46:18.982Z,17.70
2019-04-30T13:48:47.413Z,17.69
2019-04-30T13:51:15.844Z,17.49
2019-04-30T13:53:44.326Z,17.61
2019-04-30T13:56:12.749Z,17.55
2019-04-30T13:58:44.475Z,17.43
2019-04-30T14:01:13.011Z,17.50
2019-04-30T14:04:01.175Z,17.49
2019-04-30T14:06:31.268Z,17.71
2019-04-30T14:09:16.083Z,17.70
2019-04-30T14:11:44.562Z,17.84
2019-04-30T14:14:13.147Z,17.74
2019-04-30T14:16:43.871Z,17.87
2019-04-30T14:19:12.105Z,17.87
2019-04-30T14:21:40.538Z,18.01
2019-04-30T14:24:09.521Z,17.56
2019-04-30T14:26:39.148Z,17.72
2019-04-30T14:29:08.557Z,17.88
2019-04-30T14:31:38.798Z,17.52
2019-04-30T14:34:07.375Z,17.66
2019-04-30T14:36:35.825Z,17.80
2019-04-30T14:39:14.461Z,17.74
2019-04-30T14:41:39.972Z,17.54
2019-04-30T14:44:18.512Z,17.63
2019-04-30T14:46:52.050Z,17.69
2019-04-30T14:49:42.099Z,17.77
2019-04-30T14:52:11.703Z,17.85
2019-04-30T14:54:56.481Z,17.85
2019-04-30T14:57:29.441Z,17.67
2019-04-30T15:00:01.965Z,17.64
2019-04-30T15:02:35.061Z,17.64
2019-04-30T15:05:08.965Z,17.75
2019-04-30T15:07:39.550Z,17.81
2019-04-30T15:10:11.776Z,17.81
2019-04-30T15:12:40.320Z,17.88
2019-04-30T15:15:09.263Z,17.72
2019-04-30T15:17:39.242Z,17.81
2019-04-30T15:20:08.968Z,17.79
2019-04-30T15:22:39.131Z,17.67
2019-04-30T15:25:07.875Z,17.71
2019-04-30T15:27:36.328Z,17.75
2019-04-30T15:30:07.904Z,17.72
2019-04-30T15:32:39.561Z,17.62
2019-04-30T15:35:08.949Z,17.72
2019-04-30T15:37:39.156Z,17.67
2019-04-30T15:40:09.146Z,17.77
2019-04-30T15:42:39.500Z,17.77
2019-04-30T15:45:09.299Z,17.86
2019-04-30T15:47:38.741Z,17.99
2019-04-30T15:50:09.745Z,18.01
2019-04-30T15:52:38.780Z,17.90
2019-04-30T15:55:09.202Z,18.03
2019-04-30T15:57:39.420Z,18.06
2019-04-30T16:00:08.618Z,18.12
2019-04-30T16:02:40.428Z,18.15
2019-04-30T16:05:14.149Z,18.03
2019-04-30T16:07:56.516Z,18.08
2019-04-30T16:10:35.932Z,18.20
2019-04-30T16:13:06.479Z,18.09
2019-04-30T16:15:35.002Z,17.97
2019-04-30T16:18:04.760Z,17.72
2019-04-30T16:20:33.243Z,17.74
2019-04-30T16:23:01.736Z,17.65
2019-04-30T16:25:31.130Z,17.69
2019-04-30T16:27:59.641Z,17.70
2019-04-30T16:30:28.925Z,17.67
2019-04-30T16:32:59.503Z,17.61
2019-04-30T16:35:29.548Z,17.65
2019-04-30T16:37:59.366Z,17.58
2019-04-30T16:40:29.061Z,17.48
2019-04-30T16:42:57.690Z,17.46
2019-04-30T16:45:26.188Z,17.35
2019-04-30T16:47:54.972Z,17.40
2019-04-30T16:50:23.703Z,17.43
2019-04-30T16:52:52.281Z,17.39
2019-04-30T16:55:20.967Z,17.32
2019-04-30T16:57:50.266Z,17.23
2019-04-30T17:00:20.199Z,17.14
2019-04-30T17:02:50.780Z,17.08
2019-04-30T17:05:24.190Z,17.09
2019-04-30T17:08:03.369Z,17.05
2019-04-30T17:10:39.607Z,17.08
2019-04-30T17:13:22.225Z,17.02
2019-04-30T17:15:58.106Z,17.04
2019-04-30T17:18:26.863Z,17.01
2019-04-30T17:20:55.482Z,16.93
2019-04-30T17:23:23.972Z,16.93
2019-04-30T17:25:52.435Z,16.86
2019-04-30T17:28:21.029Z,16.90
2019-04-30T17:30:49.519Z,16.95
2019-04-30T17:33:18.162Z,16.93
2019-04-30T17:35:46.768Z,16.92
2019-04-30T17:38:15.406Z,16.95
2019-04-30T17:40:43.929Z,16.91
2019-04-30T17:43:12.672Z,16.93
2019-04-30T17:45:41.231Z,16.92
2019-04-30T17:48:09.832Z,16.87
2019-04-30T17:50:39.631Z,16.85
2019-04-30T17:53:09.056Z,16.74
2019-04-30T17:55:39.160Z,16.75
2019-04-30T17:58:09.789Z,16.73
2019-04-30T18:00:40.482Z,16.64
2019-04-30T18:03:10.906Z,16.60
2019-04-30T18:05:39.189Z,16.56
2019-04-30T18:08:08.424Z,16.50
2019-04-30T18:10:37.093Z,16.42
2019-04-30T18:13:06.038Z,16.30
2019-04-30T18:15:34.569Z,16.31
2019-04-30T18:18:04.768Z,16.24
2019-04-30T18:20:34.956Z,16.24
2019-04-30T18:23:21.287Z,16.24
2019-04-30T18:25:51.396Z,16.21
2019-04-30T18:28:19.906Z,16.22
2019-04-30T18:30:49.093Z,16.22
2019-04-30T18:33:18.119Z,16.20
2019-04-30T18:35:48.545Z,16.20
2019-04-30T18:38:19.977Z,16.21
2019-04-30T18:40:50.225Z,16.17
2019-04-30T18:43:20.550Z,16.11
2019-04-30T18:45:49.511Z,16.08
2019-04-30T18:48:19.496Z,16.03
2019-04-30T18:50:48.222Z,15.90
2019-04-30T18:53:18.995Z,15.89
2019-04-30T18:55:50.503Z,15.88
2019-04-30T18:58:19.977Z,15.86
2019-04-30T19:00:49.437Z,15.78
2019-04-30T19:03:21.620Z,15.81
2019-04-30T19:05:49.977Z,15.79
2019-04-30T19:08:26.368Z,15.70
2019-04-30T19:10:56.504Z,15.70
2019-04-30T19:13:35.266Z,15.67
2019-04-30T19:16:22.125Z,15.63
2019-04-30T19:18:40.132Z,15.59
2019-04-30T19:21:09.866Z,15.59
2019-04-30T19:23:39.074Z,15.59
2019-04-30T19:26:07.665Z,15.54
2019-04-30T19:28:36.115Z,15.45
2019-04-30T19:31:04.820Z,15.43
2019-04-30T19:33:33.324Z,15.37
2019-04-30T19:36:01.850Z,15.28
2019-04-30T19:38:30.751Z,15.19
2019-04-30T19:40:59.274Z,15.17
2019-04-30T19:43:28.682Z,15.17
2019-04-30T19:45:59.169Z,15.02
2019-04-30T19:48:27.491Z,15.02
2019-04-30T19:50:59.601Z,14.92
2019-04-30T19:53:28.047Z,14.91
2019-04-30T19:55:56.569Z,14.84
2019-04-30T19:58:33.380Z,14.80
2019-04-30T20:00:55.362Z,14.75
2019-04-30T20:03:24.035Z,14.69
2019-04-30T20:05:52.760Z,14.68
2019-04-30T20:08:21.271Z,14.62
2019-04-30T20:10:49.769Z,14.57
2019-04-30T20:13:30.871Z,14.43
2019-04-30T20:15:49.389Z,14.42
2019-04-30T20:18:19.059Z,14.40
2019-04-30T20:20:51.905Z,14.37
2019-04-30T20:23:20.321Z,14.30
2019-04-30T20:25:49.115Z,14.24
2019-04-30T20:28:17.564Z,14.17
2019-04-30T20:30:46.189Z,14.14
2019-04-30T20:33:14.909Z,14.11
2019-04-30T20:35:43.424Z,14.04
2019-04-30T20:38:19.755Z,13.94
2019-04-30T20:40:59.523Z,13.96
2019-04-30T20:43:20.129Z,13.88
2019-04-30T20:45:48.816Z,13.87
2019-04-30T20:48:18.801Z,13.90
2019-04-30T20:50:47.625Z,13.93
2019-04-30T20:53:16.233Z,13.94
2019-04-30T20:55:44.739Z,13.95
2019-04-30T20:58:13.205Z,13.94
2019-04-30T21:00:41.643Z,13.93
2019-04-30T21:03:10.173Z,13.95
2019-04-30T21:05:38.722Z,13.97
2019-04-30T21:08:07.373Z,13.95
2019-04-30T21:10:36.109Z,13.95
2019-04-30T21:13:04.719Z,13.96
2019-04-30T21:15:33.308Z,13.97
2019-04-30T21:18:01.825Z,13.94
2019-04-30T21:20:31.254Z,13.90
2019-04-30T21:22:59.791Z,13.87
2019-04-30T21:25:29.220Z,13.88
2019-04-30T21:28:00.023Z,13.89
2019-04-30T21:30:28.059Z,13.89
2019-04-30T21:33:02.023Z,13.89
2019-04-30T21:35:43.967Z,13.89
2019-04-30T21:38:12.432Z,13.85
2019-04-30T21:40:40.880Z,13.86
2019-04-30T21:43:09.647Z,13.78
2019-04-30T21:45:39.833Z,13.75
2019-04-30T21:48:09.200Z,13.67
2019-04-30T21:50:39.732Z,13.70
2019-04-30T21:53:09.965Z,13.69
2019-04-30T21:55:39.802Z,13.65
2019-04-30T21:58:09.609Z,13.65
2019-04-30T22:00:43.211Z,13.66
2019-04-30T22:03:11.916Z,13.55
2019-04-30T22:05:40.535Z,13.50
2019-04-30T22:08:09.262Z,13.47
2019-04-30T22:10:37.776Z,13.52
2019-04-30T22:13:06.253Z,13.52
2019-04-30T22:15:36.592Z,13.52
2019-04-30T22:18:05.555Z,13.45
2019-04-30T22:20:34.091Z,13.44
2019-04-30T22:23:02.544Z,13.46
2019-04-30T22:25:33.406Z,13.46
2019-04-30T22:28:01.850Z,13.44
2019-04-30T22:30:30.288Z,13.34
2019-04-30T22:32:59.589Z,13.35
2019-04-30T22:35:29.796Z,13.22
2019-04-30T22:38:06.008Z,13.09
2019-04-30T22:40:34.596Z,13.05
2019-04-30T22:43:03.241Z,12.93
2019-04-30T22:45:49.882Z,12.90
2019-04-30T22:48:18.770Z,12.95
2019-04-30T22:50:47.628Z,12.88
2019-04-30T22:53:16.166Z,12.94
2019-04-30T22:55:44.830Z,12.88
2019-04-30T22:58:14.914Z,12.89
2019-04-30T23:00:45.156Z,12.75
2019-04-30T23:03:15.339Z,12.81
2019-04-30T23:05:44.202Z,12.83
2019-04-30T23:08:12.739Z,12.74
2019-04-30T23:10:41.742Z,12.66
2019-04-30T23:13:10.284Z,12.61
2019-04-30T23:15:39.198Z,12.66
2019-04-30T23:18:07.784Z,12.57
2019-04-30T23:20:36.302Z,12.55
2019-04-30T23:23:04.978Z,12.56
2019-04-30T23:25:33.484Z,12.60
2019-04-30T23:28:02.087Z,12.58
2019-04-30T23:30:30.637Z,12.54
2019-04-30T23:32:59.176Z,12.48
2019-04-30T23:35:27.636Z,12.46
2019-04-30T23:37:56.115Z,12.39
2019-04-30T23:40:30.594Z,12.29
2019-04-30T23:42:59.142Z,12.38
2019-04-30T23:45:27.770Z,12.33
2019-04-30T23:47:56.388Z,12.34
2019-04-30T23:50:24.892Z,12.34
2019-04-30T23:52:54.136Z,12.23
2019-04-30T23:55:22.898Z,12.17
2019-04-30T23:57:51.582Z,12.16
